createdAt,value
2018-10-17T00:00:44.341Z,10.4
2018-10-17T00:05:46.775Z,10.4
2018-10-17T00:10:49.178Z,10.3
2018-10-17T00:15:51.613Z,10.2
2018-10-17T00:20:54.136Z,10.1
2018-10-17T00:25:56.515Z,10.1
2018-10-17T00:30:58.955Z,10
2018-10-17T00:36:01.396Z,10
2018-10-17T00:41:03.960Z,10
2018-10-17T00:46:06.261Z,10.1
2018-10-17T00:51:08.724Z,10
2018-10-17T00:56:11.150Z,10
2018-10-17T01:01:13.642Z,9.9
2018-10-17T01:06:16.027Z,9.8
2018-10-17T01:11:18.461Z,9.7
2018-10-17T01:16:20.924Z,9.6
2018-10-17T01:21:23.348Z,9.6
2018-10-17T01:26:25.783Z,9.6
2018-10-17T01:31:28.216Z,9.6
2018-10-17T01:36:30.725Z,9.6
2018-10-17T01:41:33.103Z,9.5
2018-10-17T01:46:35.537Z,9.5
2018-10-17T01:51:37.978Z,9.5
2018-10-17T01:56:40.540Z,9.4
2018-10-17T02:01:42.865Z,9.3
2018-10-17T02:06:45.306Z,9.3
2018-10-17T02:11:47.761Z,9.2
2018-10-17T02:16:50.184Z,9.2
2018-10-17T02:21:52.637Z,9.2
2018-10-17T02:26:55.078Z,9.2
2018-10-17T02:31:57.515Z,9.1
2018-10-17T02:36:59.976Z,9
2018-10-17T02:42:02.412Z,9
2018-10-17T02:47:04.869Z,8.9
2018-10-17T02:52:07.289Z,8.9
2018-10-17T02:57:09.712Z,8.9
2018-10-17T03:02:12.157Z,9
2018-10-17T03:07:14.643Z,9.1
2018-10-17T03:12:17.032Z,9.1
2018-10-17T03:17:20.130Z,9.1
2018-10-17T03:22:21.925Z,9
2018-10-17T03:27:24.363Z,9
2018-10-17T03:32:26.820Z,9
2018-10-17T03:37:29.255Z,8.9
2018-10-17T03:42:31.691Z,8.9
2018-10-17T03:47:34.247Z,8.9
2018-10-17T03:52:36.577Z,8.8
2018-10-17T03:57:38.999Z,8.8
2018-10-17T04:02:41.599Z,8.7
2018-10-17T04:07:44.060Z,8.7
2018-10-17T04:12:46.378Z,8.6
2018-10-17T04:17:48.763Z,8.6
2018-10-17T04:22:51.431Z,8.5
2018-10-17T04:27:53.655Z,8.4
2018-10-17T04:32:56.168Z,8.4
2018-10-17T04:38:03.623Z,8.3
2018-10-17T04:43:01.015Z,8.3
2018-10-17T04:48:03.401Z,8.3
2018-10-17T04:53:05.989Z,8.3
2018-10-17T04:58:08.304Z,8.3
2018-10-17T05:03:10.719Z,8.3
2018-10-17T05:08:13.149Z,8.3
2018-10-17T05:13:15.794Z,8.2
2018-10-17T05:18:18.035Z,8.1
2018-10-17T05:23:20.474Z,8.1
2018-10-17T05:28:22.940Z,8.1
2018-10-17T05:33:25.379Z,8
2018-10-17T05:38:27.797Z,8
2018-10-17T05:43:30.239Z,8
2018-10-17T05:48:32.687Z,8
2018-10-17T05:53:35.120Z,7.9
2018-10-17T05:58:37.568Z,7.9
2018-10-17T06:03:40.005Z,7.9
2018-10-17T06:08:42.435Z,7.9
2018-10-17T06:13:44.886Z,8
2018-10-17T06:18:47.309Z,7.9
2018-10-17T06:23:50.150Z,7.9
2018-10-17T06:28:52.226Z,8
2018-10-17T06:33:54.717Z,7.9
2018-10-17T06:38:57.073Z,8
2018-10-17T06:43:59.583Z,8.1
2018-10-17T06:49:02.074Z,8.2
2018-10-17T06:54:04.566Z,8.3
2018-10-17T06:59:06.952Z,8.4
2018-10-17T07:04:09.294Z,8.5
2018-10-17T07:09:11.719Z,8.6
2018-10-17T07:14:14.174Z,8.7
2018-10-17T07:19:16.651Z,8.8
2018-10-17T07:24:19.041Z,9.1
2018-10-17T07:29:21.620Z,9.3
2018-10-17T07:34:23.929Z,9.5
2018-10-17T07:39:26.347Z,9.6
2018-10-17T07:44:28.806Z,9.7
2018-10-17T07:49:31.232Z,9.8
2018-10-17T07:54:33.686Z,9.9
2018-10-17T07:59:36.653Z,10
2018-10-17T08:04:38.824Z,10.2
2018-10-17T08:09:41.006Z,10.3
2018-10-17T08:14:43.454Z,10.4
2018-10-17T08:19:45.879Z,10.6
2018-10-17T08:24:48.336Z,10.7
2018-10-17T08:29:50.791Z,10.9
2018-10-17T08:34:53.202Z,11
2018-10-17T08:39:55.644Z,11.1
2018-10-17T08:44:58.226Z,11.3
2018-10-17T08:50:00.573Z,11.4
2018-10-17T08:55:02.976Z,11.6
2018-10-17T09:00:05.476Z,11.8
2018-10-17T09:05:07.848Z,12
2018-10-17T09:10:10.375Z,12.2
2018-10-17T09:15:12.730Z,12.3
2018-10-17T09:20:15.417Z,12.5
2018-10-17T09:25:17.715Z,12.7
2018-10-17T09:30:20.305Z,12.8
2018-10-17T09:35:22.542Z,13
2018-10-17T09:40:24.931Z,13.1
2018-10-17T09:45:27.473Z,13.3
2018-10-17T09:50:29.828Z,13.5
2018-10-17T09:55:32.247Z,13.7
2018-10-17T10:00:34.729Z,13.9
2018-10-17T10:05:37.152Z,14.2
2018-10-17T10:10:39.619Z,14.4
2018-10-17T10:15:42.222Z,14.6
2018-10-17T10:20:44.470Z,14.9
2018-10-17T10:25:46.985Z,15.1
2018-10-17T10:30:49.332Z,15.3
2018-10-17T10:35:51.833Z,15.6
2018-10-17T10:40:54.237Z,15.9
2018-10-17T10:45:56.677Z,16.5
2018-10-17T10:50:59.150Z,16.9
2018-10-17T10:56:01.584Z,17.4
2018-10-17T11:01:03.985Z,17.8
2018-10-17T11:06:06.421Z,18.6
2018-10-17T11:11:08.930Z,19.5
2018-10-17T11:16:11.313Z,20.3
2018-10-17T11:21:13.861Z,20.7
2018-10-17T11:26:16.191Z,21.1
2018-10-17T11:31:18.643Z,21.2
2018-10-17T11:36:21.064Z,20.8
2018-10-17T11:41:23.666Z,20.5
2018-10-17T11:46:25.959Z,19.8
2018-10-17T11:51:28.389Z,19.5
2018-10-17T11:56:30.837Z,20.8
2018-10-17T12:01:33.287Z,22
2018-10-17T12:06:35.802Z,23.1
2018-10-17T12:11:38.215Z,23.8
2018-10-17T12:16:40.625Z,24
2018-10-17T12:21:43.046Z,25.2
2018-10-17T12:26:45.500Z,26.3
2018-10-17T12:31:47.963Z,26.8
2018-10-17T12:36:50.377Z,27.3
2018-10-17T12:41:52.830Z,27.9
2018-10-17T12:46:55.292Z,28.4
2018-10-17T12:51:57.721Z,28.6
2018-10-17T12:57:00.150Z,28.5
2018-10-17T13:02:02.623Z,28.7
2018-10-17T13:07:05.046Z,29.2
2018-10-17T13:12:07.478Z,29.7
2018-10-17T13:17:10.002Z,29.5
2018-10-17T13:22:12.397Z,29.4
2018-10-17T13:27:14.793Z,29.3
2018-10-17T13:32:17.333Z,29.7
2018-10-17T13:37:19.818Z,30
2018-10-17T13:42:22.125Z,30.2
2018-10-17T13:47:24.581Z,30.4
2018-10-17T13:52:27.021Z,30.5
2018-10-17T13:57:29.456Z,30.4
2018-10-17T14:02:31.920Z,29.3
2018-10-17T14:07:34.343Z,28.6
2018-10-17T14:12:36.785Z,28.6
2018-10-17T14:17:39.234Z,28.8
2018-10-17T14:22:41.657Z,28.8
2018-10-17T14:27:44.117Z,28.7
2018-10-17T14:32:46.655Z,28.2
2018-10-17T14:37:49.017Z,26.5
2018-10-17T14:42:51.431Z,25
2018-10-17T14:47:53.929Z,23.9
2018-10-17T14:52:56.356Z,23
2018-10-17T14:57:58.787Z,22.6
2018-10-17T15:03:01.240Z,21.9
2018-10-17T15:08:03.647Z,21.2
2018-10-17T15:13:06.085Z,20.6
2018-10-17T15:18:08.716Z,20
2018-10-17T15:23:10.969Z,19.6
2018-10-17T15:28:13.413Z,19.3
2018-10-17T15:33:15.910Z,18.9
2018-10-17T15:38:18.292Z,18.5
2018-10-17T15:43:20.846Z,18.2
2018-10-17T15:48:23.173Z,17.9
2018-10-17T15:53:25.620Z,17.6
2018-10-17T15:58:28.055Z,17.3
2018-10-17T16:03:30.527Z,17
2018-10-17T16:08:32.954Z,16.7
2018-10-17T16:13:35.577Z,16.5
2018-10-17T16:18:37.825Z,16.2
2018-10-17T16:23:40.260Z,16
2018-10-17T16:28:42.778Z,15.9
2018-10-17T16:33:45.787Z,15.7
2018-10-17T16:38:47.573Z,15.5
2018-10-17T16:43:50.021Z,15.3
2018-10-17T16:48:52.470Z,15.1
2018-10-17T16:53:55.032Z,15
2018-10-17T16:58:57.361Z,14.8
2018-10-17T17:03:59.790Z,14.7
2018-10-17T17:09:02.260Z,14.6
2018-10-17T17:14:04.668Z,14.5
2018-10-17T17:19:07.108Z,14.4
2018-10-17T17:24:09.612Z,14.3
2018-10-17T17:29:12.037Z,14.3
2018-10-17T17:34:14.459Z,14.2
2018-10-17T17:39:16.921Z,14.1
2018-10-17T17:44:19.313Z,13.9
2018-10-17T17:49:21.753Z,13.8
2018-10-17T17:54:24.287Z,13.7
2018-10-17T17:59:26.633Z,13.5
2018-10-17T18:04:29.168Z,13.4
2018-10-17T18:09:31.519Z,13.3
2018-10-17T18:14:33.957Z,13.2
2018-10-17T18:19:36.397Z,13
2018-10-17T18:24:38.862Z,13
2018-10-17T18:29:41.280Z,12.9
2018-10-17T18:34:43.733Z,12.8
2018-10-17T18:39:46.237Z,12.7
2018-10-17T18:44:48.627Z,12.6
2018-10-17T18:49:51.046Z,12.6
2018-10-17T18:54:53.482Z,12.5
2018-10-17T18:59:55.937Z,12.4
2018-10-17T19:04:58.349Z,12.3
2018-10-17T19:10:00.806Z,12.2
2018-10-17T19:15:03.267Z,12.1
2018-10-17T19:20:05.686Z,12
2018-10-17T19:25:08.106Z,11.9
2018-10-17T19:30:10.650Z,11.9
2018-10-17T19:35:12.991Z,11.8
2018-10-17T19:40:15.471Z,11.7
2018-10-17T19:45:18.044Z,11.6
2018-10-17T19:50:20.342Z,11.5
2018-10-17T19:55:22.779Z,11.5
2018-10-17T20:00:25.206Z,11.5
2018-10-17T20:05:27.645Z,11.5
2018-10-17T20:10:30.074Z,11.4
2018-10-17T20:15:32.592Z,11.3
2018-10-17T20:20:34.974Z,11.3
2018-10-17T20:25:37.399Z,11.2
2018-10-17T20:30:39.842Z,11.1
2018-10-17T20:35:42.284Z,11
2018-10-17T20:40:44.724Z,10.9
2018-10-17T20:45:47.151Z,10.8
2018-10-17T20:50:49.698Z,10.8
2018-10-17T20:55:52.048Z,10.7
2018-10-17T21:00:54.480Z,10.6
2018-10-17T21:05:56.928Z,10.6
2018-10-17T21:10:59.414Z,10.6
2018-10-17T21:16:01.868Z,10.5
2018-10-17T21:21:04.273Z,10.5
2018-10-17T21:26:06.711Z,10.4
2018-10-17T21:31:09.124Z,10.4
2018-10-17T21:36:11.560Z,10.4
2018-10-17T21:41:13.995Z,10.3
2018-10-17T21:51:18.895Z,10.2
2018-10-17T21:56:21.316Z,10.2
2018-10-17T22:01:23.756Z,10.1
2018-10-17T22:06:26.207Z,10.1
2018-10-17T22:11:28.631Z,10
2018-10-17T22:16:31.077Z,9.9
2018-10-17T22:21:33.530Z,9.9
2018-10-17T22:26:35.979Z,9.8
2018-10-17T22:31:38.392Z,9.8
2018-10-17T22:36:40.849Z,9.7
2018-10-17T22:41:43.400Z,9.6
2018-10-17T22:46:45.785Z,9.6
2018-10-17T22:51:48.173Z,9.5
2018-10-17T22:56:50.611Z,9.5
2018-10-17T23:01:53.065Z,9.4
2018-10-17T23:06:55.473Z,9.5
2018-10-17T23:11:57.912Z,9.4
2018-10-17T23:17:00.353Z,9.4
2018-10-17T23:22:02.824Z,9.3
2018-10-17T23:27:05.238Z,9.3
2018-10-17T23:32:07.749Z,9.2
2018-10-17T23:37:10.130Z,9.2
2018-10-17T23:42:12.665Z,9.1
2018-10-17T23:47:15.021Z,9
2018-10-17T23:52:17.698Z,9.1
2018-10-17T23:57:20.026Z,9.1
